createdAt,value
2018-07-23T00:00:58.012Z,26.90
2018-07-23T00:01:58.051Z,26.87
2018-07-23T00:03:51.568Z,26.85
2018-07-23T00:04:51.596Z,26.89
2018-07-23T00:06:45.152Z,26.87
2018-07-23T00:07:45.168Z,26.81
2018-07-23T00:09:38.707Z,26.85
2018-07-23T00:10:38.738Z,26.86
2018-07-23T00:12:32.286Z,26.82
2018-07-23T00:13:32.308Z,26.87
2018-07-23T00:15:25.850Z,26.85
2018-07-23T00:16:25.882Z,26.82
2018-07-23T00:18:19.480Z,26.80
2018-07-23T00:19:19.448Z,26.85
2018-07-23T00:21:12.988Z,26.82
2018-07-23T00:22:13.023Z,26.87
2018-07-23T00:24:06.586Z,26.82
2018-07-23T00:25:06.596Z,26.80
2018-07-23T00:27:00.133Z,26.86
2018-07-23T00:28:00.160Z,26.85
2018-07-23T00:29:53.757Z,26.86
2018-07-23T00:30:53.732Z,26.74
2018-07-23T00:32:47.270Z,26.82
2018-07-23T00:33:47.312Z,26.71
2018-07-23T00:35:40.856Z,26.75
2018-07-23T00:36:40.874Z,26.72
2018-07-23T00:38:34.420Z,26.82
2018-07-23T00:39:34.444Z,26.82
2018-07-23T00:41:27.990Z,26.80
2018-07-23T00:42:28.013Z,26.82
2018-07-23T00:44:21.550Z,26.80
2018-07-23T00:45:21.584Z,26.78
2018-07-23T00:47:15.136Z,26.78
2018-07-23T00:48:15.156Z,26.68
2018-07-23T00:50:08.697Z,26.77
2018-07-23T00:51:08.726Z,26.81
2018-07-23T00:53:02.278Z,26.78
2018-07-23T00:54:02.295Z,26.82
2018-07-23T00:55:55.833Z,26.82
2018-07-23T00:56:55.866Z,26.68
2018-07-23T00:58:49.414Z,26.77
2018-07-23T00:59:49.435Z,26.74
2018-07-23T01:01:42.973Z,26.82
2018-07-23T01:02:43.006Z,26.82
2018-07-23T01:04:36.559Z,26.77
2018-07-23T01:05:36.577Z,26.77
2018-07-23T01:07:30.116Z,26.74
2018-07-23T01:08:30.146Z,26.81
2018-07-23T01:10:23.701Z,26.77
2018-07-23T01:11:23.716Z,26.86
2018-07-23T01:13:17.255Z,26.85
2018-07-23T01:14:17.288Z,26.80
2018-07-23T01:16:10.836Z,26.78
2018-07-23T01:17:10.859Z,26.75
2018-07-23T01:19:04.398Z,26.75
2018-07-23T01:20:04.429Z,26.74
2018-07-23T01:21:57.981Z,26.74
2018-07-23T01:22:57.998Z,26.74
2018-07-23T01:24:51.537Z,26.77
2018-07-23T01:25:51.567Z,26.71
2018-07-23T01:27:45.126Z,26.75
2018-07-23T01:28:45.139Z,26.70
2018-07-23T01:30:38.677Z,26.72
2018-07-23T01:31:38.710Z,26.68
2018-07-23T01:33:32.257Z,26.62
2018-07-23T01:34:32.280Z,26.68
2018-07-23T01:36:25.818Z,26.60
2018-07-23T01:37:25.851Z,26.63
2018-07-23T01:39:19.404Z,26.63
2018-07-23T01:40:19.421Z,26.63
2018-07-23T01:42:12.963Z,26.63
2018-07-23T01:43:12.991Z,26.56
2018-07-23T01:45:06.545Z,26.59
2018-07-23T01:46:06.561Z,26.57
2018-07-23T01:48:00.101Z,26.65
2018-07-23T01:49:00.136Z,26.49
2018-07-23T01:50:53.680Z,26.49
2018-07-23T01:51:53.703Z,26.52
2018-07-23T01:53:47.243Z,26.52
2018-07-23T01:54:47.273Z,26.49
2018-07-23T01:56:40.828Z,26.45
2018-07-23T01:57:40.847Z,26.48
2018-07-23T01:59:34.383Z,26.43
2018-07-23T02:00:34.415Z,26.49
2018-07-23T02:02:39.645Z,26.48
2018-07-23T02:03:39.661Z,26.50
2018-07-23T02:05:33.202Z,26.48
2018-07-23T02:06:33.231Z,26.48
2018-07-23T02:08:26.778Z,26.45
2018-07-23T02:09:26.798Z,26.48
2018-07-23T02:11:20.338Z,26.40
2018-07-23T02:12:20.369Z,26.41
2018-07-23T02:14:13.914Z,26.38
2018-07-23T02:15:13.933Z,26.31
2018-07-23T02:17:07.480Z,26.43
2018-07-23T02:18:07.529Z,26.38
2018-07-23T02:20:01.067Z,26.40
2018-07-23T02:21:01.081Z,26.35
2018-07-23T02:22:54.621Z,26.30
2018-07-23T02:23:54.648Z,26.33
2018-07-23T02:25:48.200Z,26.31
2018-07-23T02:26:48.223Z,26.30
2018-07-23T02:28:41.761Z,26.25
2018-07-23T02:29:41.794Z,26.33
2018-07-23T02:31:35.348Z,26.23
2018-07-23T02:32:35.365Z,26.28
2018-07-23T02:34:28.909Z,26.22
2018-07-23T02:35:28.934Z,26.15
2018-07-23T02:37:22.488Z,26.22
2018-07-23T02:38:22.503Z,26.20
2018-07-23T02:40:16.043Z,26.18
2018-07-23T02:41:16.077Z,26.18
2018-07-23T02:43:09.623Z,26.19
2018-07-23T02:44:09.634Z,26.15
2018-07-23T02:46:03.187Z,26.15
2018-07-23T02:47:03.219Z,26.12
2018-07-23T02:48:56.766Z,26.20
2018-07-23T02:49:56.787Z,26.20
2018-07-23T02:51:50.324Z,26.18
2018-07-23T02:52:50.355Z,26.20
2018-07-23T02:54:43.902Z,26.15
2018-07-23T02:55:43.919Z,26.15
2018-07-23T02:57:37.467Z,26.19
2018-07-23T02:58:37.498Z,26.15
2018-07-23T03:00:31.045Z,26.11
2018-07-23T03:01:31.068Z,26.02
2018-07-23T03:03:24.607Z,26.18
2018-07-23T03:04:24.638Z,26.03
2018-07-23T03:06:18.193Z,26.06
2018-07-23T03:07:18.209Z,26.00
2018-07-23T03:09:11.747Z,26.18
2018-07-23T03:10:11.781Z,26.03
2018-07-23T03:12:05.338Z,26.04
2018-07-23T03:13:05.392Z,25.93
2018-07-23T03:14:58.893Z,26.07
2018-07-23T03:15:58.920Z,25.99
2018-07-23T03:17:52.468Z,25.95
2018-07-23T03:18:52.499Z,25.95
2018-07-23T03:20:46.034Z,25.96
2018-07-23T03:21:46.135Z,26.00
2018-07-23T03:23:39.619Z,25.88
2018-07-23T03:24:39.631Z,25.90
2018-07-23T03:26:33.171Z,26.02
2018-07-23T03:27:33.202Z,26.00
2018-07-23T03:29:26.760Z,26.00
2018-07-23T03:30:26.777Z,25.99
2018-07-23T03:32:20.313Z,25.95
2018-07-23T03:33:20.343Z,25.82
2018-07-23T03:35:13.888Z,25.97
2018-07-23T03:36:13.913Z,25.90
2018-07-23T03:38:07.461Z,25.88
2018-07-23T03:39:07.484Z,25.85
2018-07-23T03:41:01.023Z,25.95
2018-07-23T03:42:01.053Z,25.85
2018-07-23T03:43:54.095Z,25.88
2018-07-23T03:44:54.112Z,25.90
2018-07-23T03:46:47.669Z,25.99
2018-07-23T03:47:47.683Z,25.90
2018-07-23T03:49:41.230Z,25.93
2018-07-23T03:50:41.250Z,25.85
2018-07-23T03:52:34.802Z,25.88
2018-07-23T03:53:34.822Z,25.80
2018-07-23T03:55:28.363Z,25.87
2018-07-23T03:56:28.394Z,25.88
2018-07-23T03:58:21.991Z,25.87
2018-07-23T03:59:21.990Z,25.81
2018-07-23T04:01:15.516Z,25.80
2018-07-23T04:02:15.534Z,25.78
2018-07-23T04:04:09.076Z,25.82
2018-07-23T04:05:09.105Z,25.82
2018-07-23T04:07:02.651Z,25.78
2018-07-23T04:08:02.675Z,25.75
2018-07-23T04:09:56.272Z,25.82
2018-07-23T04:10:56.247Z,25.80
2018-07-23T04:12:49.797Z,25.88
2018-07-23T04:13:49.816Z,25.87
2018-07-23T04:15:43.356Z,25.74
2018-07-23T04:16:43.386Z,25.87
2018-07-23T04:18:36.936Z,25.87
2018-07-23T04:19:36.958Z,25.88
2018-07-23T04:21:30.507Z,25.92
2018-07-23T04:22:30.529Z,25.80
2018-07-23T04:24:24.068Z,25.97
2018-07-23T04:25:24.101Z,25.97
2018-07-23T04:27:17.651Z,25.85
2018-07-23T04:28:17.665Z,25.90
2018-07-23T04:30:11.216Z,25.93
2018-07-23T04:31:11.240Z,25.99
2018-07-23T04:33:04.787Z,25.88
2018-07-23T04:34:04.813Z,25.96
2018-07-23T04:35:58.350Z,25.85
2018-07-23T04:36:58.377Z,25.85
2018-07-23T04:38:51.944Z,25.81
2018-07-23T04:39:51.980Z,25.77
2018-07-23T04:41:45.497Z,25.81
2018-07-23T04:42:45.521Z,25.74
2018-07-23T04:44:39.061Z,25.77
2018-07-23T04:45:39.095Z,25.73
2018-07-23T04:47:32.640Z,25.78
2018-07-23T04:48:32.662Z,25.74
2018-07-23T04:50:26.203Z,25.74
2018-07-23T04:51:26.237Z,25.80
2018-07-23T04:53:19.782Z,25.66
2018-07-23T04:54:19.803Z,25.74
2018-07-23T04:56:13.342Z,25.77
2018-07-23T04:57:13.375Z,25.74
2018-07-23T04:59:06.924Z,25.70
2018-07-23T05:00:06.949Z,25.70
2018-07-23T05:02:00.492Z,25.74
2018-07-23T05:03:00.515Z,25.70
2018-07-23T05:04:54.053Z,25.73
2018-07-23T05:05:54.086Z,25.74
2018-07-23T05:07:47.635Z,25.77
2018-07-23T05:08:47.695Z,25.78
2018-07-23T05:10:41.197Z,25.75
2018-07-23T05:11:41.225Z,25.74
2018-07-23T05:13:34.775Z,25.78
2018-07-23T05:14:34.796Z,25.77
2018-07-23T05:16:28.346Z,25.81
2018-07-23T05:17:28.366Z,25.80
2018-07-23T05:19:21.907Z,25.84
2018-07-23T05:20:21.953Z,25.85
2018-07-23T05:22:15.485Z,25.85
2018-07-23T05:23:15.508Z,25.92
2018-07-23T05:25:09.052Z,25.77
2018-07-23T05:26:09.088Z,25.88
2018-07-23T05:28:02.628Z,25.90
2018-07-23T05:29:02.650Z,25.82
2018-07-23T05:30:56.193Z,25.82
2018-07-23T05:31:56.221Z,25.82
2018-07-23T05:33:49.767Z,25.90
2018-07-23T05:34:49.792Z,25.84
2018-07-23T05:36:43.349Z,25.88
2018-07-23T05:37:43.360Z,25.88
2018-07-23T05:39:36.900Z,25.90
2018-07-23T05:40:36.929Z,25.85
2018-07-23T05:42:30.480Z,25.92
2018-07-23T05:43:30.501Z,25.90
2018-07-23T05:45:24.041Z,25.95
2018-07-23T05:46:24.073Z,25.99
2018-07-23T05:48:17.618Z,25.97
2018-07-23T05:49:17.641Z,25.99
2018-07-23T05:51:11.183Z,25.97
2018-07-23T05:52:11.213Z,25.99
2018-07-23T05:54:04.762Z,25.97
2018-07-23T05:55:04.784Z,25.97
2018-07-23T05:56:58.331Z,26.00
2018-07-23T05:57:58.353Z,26.02
2018-07-23T05:59:51.898Z,26.10
2018-07-23T06:00:51.912Z,26.03
2018-07-23T06:02:45.473Z,26.10
2018-07-23T06:03:45.535Z,26.16
2018-07-23T06:05:39.061Z,26.19
2018-07-23T06:06:39.073Z,26.22
2018-07-23T06:08:33.637Z,26.22
2018-07-23T06:09:33.659Z,26.19
2018-07-23T06:11:27.207Z,26.25
2018-07-23T06:12:27.229Z,26.41
2018-07-23T06:14:20.769Z,26.43
2018-07-23T06:15:20.802Z,26.38
2018-07-23T06:17:14.348Z,26.48
2018-07-23T06:18:14.373Z,26.56
2018-07-23T06:20:07.911Z,26.57
2018-07-23T06:21:07.994Z,26.48
2018-07-23T06:23:01.497Z,26.59
2018-07-23T06:24:01.512Z,26.59
2018-07-23T06:25:55.051Z,26.60
2018-07-23T06:26:55.082Z,26.67
2018-07-23T06:28:48.633Z,26.70
2018-07-23T06:29:48.654Z,26.72
2018-07-23T06:31:42.202Z,26.78
2018-07-23T06:32:42.223Z,26.80
2018-07-23T06:34:35.763Z,26.78
2018-07-23T06:35:35.794Z,26.74
2018-07-23T06:37:29.393Z,26.78
2018-07-23T06:38:29.364Z,26.85
2018-07-23T06:40:22.904Z,26.81
2018-07-23T06:41:22.935Z,26.87
2018-07-23T06:43:16.532Z,26.92
2018-07-23T06:44:16.507Z,26.90
2018-07-23T06:46:10.044Z,26.96
2018-07-23T06:47:10.077Z,26.97
2018-07-23T06:49:03.624Z,27.02
2018-07-23T06:50:03.647Z,26.97
2018-07-23T06:51:57.190Z,26.93
2018-07-23T06:52:57.217Z,26.89
2018-07-23T06:54:50.756Z,26.89
2018-07-23T06:55:50.790Z,26.89
2018-07-23T06:57:44.334Z,26.86
2018-07-23T06:58:44.358Z,26.82
2018-07-23T07:00:37.935Z,26.87
2018-07-23T07:01:37.930Z,26.87
2018-07-23T07:03:31.476Z,26.89
2018-07-23T07:04:31.497Z,26.87
2018-07-23T07:06:25.106Z,26.89
2018-07-23T07:07:25.069Z,26.87
2018-07-23T07:09:18.611Z,26.96
2018-07-23T07:10:18.644Z,26.93
2018-07-23T07:12:12.201Z,26.90
2018-07-23T07:13:12.209Z,26.97
2018-07-23T07:15:05.749Z,26.90
2018-07-23T07:16:05.781Z,26.93
2018-07-23T07:17:59.330Z,27.05
2018-07-23T07:18:59.350Z,26.93
2018-07-23T07:20:52.896Z,27.04
2018-07-23T07:21:52.927Z,26.97
2018-07-23T07:23:46.471Z,27.09
2018-07-23T07:24:46.496Z,27.05
2018-07-23T07:26:40.039Z,27.09
2018-07-23T07:27:40.080Z,27.07
2018-07-23T07:29:33.602Z,27.04
2018-07-23T07:30:33.631Z,27.08
2018-07-23T07:32:27.187Z,27.08
2018-07-23T07:33:27.204Z,27.14
2018-07-23T07:35:20.743Z,27.08
2018-07-23T07:36:20.773Z,27.09
2018-07-23T07:38:14.327Z,27.11
2018-07-23T07:39:14.345Z,27.05
2018-07-23T07:41:07.882Z,27.07
2018-07-23T07:42:07.930Z,27.09
2018-07-23T07:44:01.462Z,27.14
2018-07-23T07:45:01.485Z,27.11
2018-07-23T07:46:55.033Z,27.12
2018-07-23T07:47:55.055Z,27.19
2018-07-23T07:49:48.596Z,27.19
2018-07-23T07:50:48.627Z,27.18
2018-07-23T07:52:42.174Z,27.17
2018-07-23T07:53:42.198Z,27.18
2018-07-23T07:55:35.736Z,27.17
2018-07-23T07:56:35.769Z,27.19
2018-07-23T07:58:29.315Z,27.24
2018-07-23T07:59:29.339Z,27.17
2018-07-23T08:01:22.884Z,27.18
2018-07-23T08:02:22.915Z,27.22
2018-07-23T08:04:16.447Z,27.19
2018-07-23T08:05:16.481Z,27.18
2018-07-23T08:07:10.082Z,27.23
2018-07-23T08:08:10.050Z,27.17
2018-07-23T08:10:03.589Z,27.22
2018-07-23T08:11:03.622Z,27.26
2018-07-23T08:12:57.170Z,27.27
2018-07-23T08:13:57.190Z,27.30
2018-07-23T08:15:50.734Z,27.24
2018-07-23T08:16:50.761Z,27.24
2018-07-23T08:18:44.311Z,27.23
2018-07-23T08:19:44.333Z,27.30
2018-07-23T08:21:37.879Z,27.26
2018-07-23T08:22:37.905Z,27.29
2018-07-23T08:24:31.443Z,27.26
2018-07-23T08:25:31.474Z,27.26
2018-07-23T08:27:25.022Z,27.23
2018-07-23T08:28:25.048Z,27.29
2018-07-23T08:30:18.582Z,27.29
2018-07-23T08:31:18.617Z,27.32
2018-07-23T08:33:11.649Z,27.27
2018-07-23T08:34:11.671Z,27.36
2018-07-23T08:36:05.211Z,27.34
2018-07-23T08:37:05.261Z,27.34
2018-07-23T08:38:58.793Z,27.32
2018-07-23T08:39:58.815Z,27.39
2018-07-23T08:41:52.364Z,27.34
2018-07-23T08:42:52.383Z,27.34
2018-07-23T08:44:45.923Z,27.33
2018-07-23T08:45:45.957Z,27.33
2018-07-23T08:47:39.500Z,27.36
2018-07-23T08:48:39.556Z,27.33
2018-07-23T08:50:33.064Z,27.29
2018-07-23T08:51:33.095Z,27.37
2018-07-23T08:53:26.863Z,27.29
2018-07-23T08:54:26.664Z,27.37
2018-07-23T08:56:20.214Z,27.34
2018-07-23T08:57:20.246Z,27.36
2018-07-23T08:59:13.774Z,27.36
2018-07-23T09:00:13.806Z,27.37
2018-07-23T09:02:07.354Z,27.42
2018-07-23T09:03:07.378Z,27.34
2018-07-23T09:05:00.915Z,27.33
2018-07-23T09:06:00.947Z,27.39
2018-07-23T09:07:54.494Z,27.41
2018-07-23T09:08:54.525Z,27.36
2018-07-23T09:10:48.057Z,27.36
2018-07-23T09:11:48.088Z,27.41
2018-07-23T09:13:41.637Z,27.34
2018-07-23T09:14:41.659Z,27.41
2018-07-23T09:16:35.207Z,27.37
2018-07-23T09:17:35.233Z,27.37
2018-07-23T09:19:28.768Z,27.39
2018-07-23T09:20:28.800Z,27.42
2018-07-23T09:22:22.349Z,27.37
2018-07-23T09:23:22.370Z,27.44
2018-07-23T09:25:15.908Z,27.41
2018-07-23T09:26:15.955Z,27.41
2018-07-23T09:28:09.486Z,27.44
2018-07-23T09:29:09.511Z,27.44
2018-07-23T09:31:03.090Z,27.44
2018-07-23T09:32:03.082Z,27.42
2018-07-23T09:33:56.630Z,27.46
2018-07-23T09:34:56.653Z,27.39
2018-07-23T09:36:50.202Z,27.45
2018-07-23T09:37:50.222Z,27.37
2018-07-23T09:39:43.761Z,27.39
2018-07-23T09:40:43.793Z,27.39
2018-07-23T09:42:37.345Z,27.39
2018-07-23T09:43:37.368Z,27.48
2018-07-23T09:45:30.956Z,27.54
2018-07-23T09:46:30.934Z,27.49
2018-07-23T09:48:24.482Z,27.44
2018-07-23T09:49:24.505Z,27.48
2018-07-23T09:51:18.178Z,27.44
2018-07-23T09:52:18.201Z,27.46
2018-07-23T09:54:11.718Z,27.42
2018-07-23T09:55:11.819Z,27.44
2018-07-23T09:57:05.301Z,27.44
2018-07-23T09:58:05.319Z,27.51
2018-07-23T09:59:58.884Z,27.49
2018-07-23T10:00:58.906Z,27.55
2018-07-23T10:02:52.443Z,27.46
2018-07-23T10:03:52.459Z,27.54
2018-07-23T10:05:46.095Z,27.41
2018-07-23T10:06:46.041Z,27.54
2018-07-23T10:08:39.578Z,27.52
2018-07-23T10:09:39.599Z,27.51
2018-07-23T10:11:33.150Z,27.51
2018-07-23T10:12:33.170Z,27.51
2018-07-23T10:14:26.710Z,27.54
2018-07-23T10:15:26.743Z,27.48
2018-07-23T10:17:25.269Z,27.46
2018-07-23T10:18:25.079Z,27.52
2018-07-23T10:20:18.573Z,27.45
2018-07-23T10:21:18.595Z,27.61
2018-07-23T10:23:12.446Z,27.51
2018-07-23T10:24:12.476Z,27.58
2018-07-23T10:26:06.008Z,27.54
2018-07-23T10:27:06.305Z,27.51
2018-07-23T10:29:00.078Z,27.49
2018-07-23T10:30:00.098Z,27.45
2018-07-23T10:31:54.507Z,27.48
2018-07-23T10:32:53.965Z,27.48
2018-07-23T10:34:47.774Z,27.58
2018-07-23T10:35:47.852Z,27.49
2018-07-23T10:37:41.326Z,27.55
2018-07-23T10:38:41.350Z,27.48
2018-07-23T10:40:34.747Z,27.54
2018-07-23T10:41:34.406Z,27.51
2018-07-23T10:43:28.023Z,27.52
2018-07-23T10:44:27.976Z,27.52
2018-07-23T10:46:21.522Z,27.51
2018-07-23T10:47:21.546Z,27.55
2018-07-23T10:49:46.767Z,27.58
2018-07-23T10:50:16.542Z,27.58
2018-07-23T10:52:15.538Z,27.61
2018-07-23T10:53:11.543Z,27.54
2018-07-23T10:55:10.927Z,27.60
2018-07-23T10:56:07.200Z,27.60
2018-07-23T10:58:00.721Z,27.60
2018-07-23T10:59:00.742Z,27.55
2018-07-23T11:00:54.282Z,27.52
2018-07-23T11:01:54.313Z,27.54
2018-07-23T11:03:47.860Z,27.61
2018-07-23T11:04:47.886Z,27.55
2018-07-23T11:06:41.428Z,27.52
2018-07-23T11:07:41.508Z,27.60
2018-07-23T11:09:34.992Z,27.52
2018-07-23T11:10:35.021Z,27.58
2018-07-23T11:12:28.570Z,27.55
2018-07-23T11:13:28.595Z,27.62
2018-07-23T11:15:22.596Z,27.61
2018-07-23T11:16:22.166Z,27.62
2018-07-23T11:18:15.723Z,27.60
2018-07-23T11:19:15.795Z,27.55
2018-07-23T11:21:09.208Z,27.62
2018-07-23T11:22:09.257Z,27.55
2018-07-23T11:24:02.770Z,27.60
2018-07-23T11:25:38.220Z,27.60
2018-07-23T11:26:56.321Z,27.58
2018-07-23T11:27:56.344Z,27.58
2018-07-23T11:30:01.045Z,27.58
2018-07-23T11:31:01.082Z,27.61
2018-07-23T11:32:54.629Z,27.60
2018-07-23T11:33:54.649Z,27.60
2018-07-23T11:35:48.188Z,27.62
2018-07-23T11:36:48.292Z,27.70
2018-07-23T11:38:41.264Z,27.62
2018-07-23T11:39:41.309Z,27.60
2018-07-23T11:41:34.829Z,27.67
2018-07-23T11:42:34.852Z,27.67
2018-07-23T11:44:28.843Z,27.64
2018-07-23T11:45:28.428Z,27.62
2018-07-23T11:47:21.964Z,27.71
2018-07-23T11:48:21.989Z,27.68
2018-07-23T11:50:15.527Z,27.65
2018-07-23T11:51:15.557Z,27.64
2018-07-23T11:53:09.105Z,27.65
2018-07-23T11:54:09.129Z,27.67
2018-07-23T11:56:02.667Z,27.68
2018-07-23T11:57:02.757Z,27.72
2018-07-23T11:58:56.247Z,27.71
2018-07-23T11:59:56.269Z,27.67
2018-07-23T12:01:49.880Z,27.68
2018-07-23T12:02:49.848Z,27.70
2018-07-23T12:04:43.554Z,27.71
2018-07-23T12:05:43.427Z,27.68
2018-07-23T12:07:36.961Z,27.71
2018-07-23T12:08:36.980Z,27.74
2018-07-23T12:10:30.520Z,27.72
2018-07-23T12:11:30.552Z,27.68
2018-07-23T12:13:24.099Z,27.70
2018-07-23T12:14:24.122Z,27.72
2018-07-23T12:16:17.670Z,27.68
2018-07-23T12:17:17.725Z,27.68
2018-07-23T12:19:11.229Z,27.65
2018-07-23T12:20:11.264Z,27.75
2018-07-23T12:22:04.812Z,27.65
2018-07-23T12:23:04.835Z,27.74
2018-07-23T12:24:58.372Z,27.70
2018-07-23T12:25:58.416Z,27.71
2018-07-23T12:27:51.956Z,27.70
2018-07-23T12:28:51.974Z,27.77
2018-07-23T12:30:45.512Z,27.67
2018-07-23T12:31:45.544Z,27.71
2018-07-23T12:33:39.091Z,27.70
2018-07-23T12:34:39.117Z,27.70
2018-07-23T12:36:32.662Z,27.62
2018-07-23T12:37:32.685Z,27.74
2018-07-23T12:39:26.245Z,27.74
2018-07-23T12:40:26.256Z,27.71
2018-07-23T12:42:19.805Z,27.71
2018-07-23T12:43:19.826Z,27.71
2018-07-23T12:45:13.366Z,27.74
2018-07-23T12:46:13.397Z,27.68
2018-07-23T12:48:06.943Z,27.71
2018-07-23T12:49:06.967Z,27.74
2018-07-23T12:51:00.509Z,27.74
2018-07-23T12:52:00.542Z,27.71
2018-07-23T12:53:54.087Z,27.79
2018-07-23T12:54:54.108Z,27.72
2018-07-23T12:56:47.656Z,27.75
2018-07-23T12:57:47.680Z,27.75
2018-07-23T12:59:41.268Z,27.86
2018-07-23T13:00:41.250Z,27.82
2018-07-23T13:02:34.799Z,27.87
2018-07-23T13:03:34.826Z,27.79
2018-07-23T13:05:28.359Z,27.82
2018-07-23T13:06:28.390Z,27.86
2018-07-23T13:08:21.938Z,27.97
2018-07-23T13:09:21.962Z,27.99
2018-07-23T13:11:15.509Z,27.98
2018-07-23T13:12:15.532Z,27.98
2018-07-23T13:14:09.076Z,27.95
2018-07-23T13:15:09.101Z,27.90
2018-07-23T13:17:02.649Z,27.97
2018-07-23T13:18:02.672Z,27.93
2018-07-23T13:19:56.210Z,27.93
2018-07-23T13:20:56.244Z,27.92
2018-07-23T13:22:49.790Z,27.98
2018-07-23T13:23:49.812Z,28.05
2018-07-23T13:25:43.360Z,28.05
2018-07-23T13:26:43.387Z,28.02
2018-07-23T13:28:36.930Z,27.99
2018-07-23T13:29:36.961Z,28.04
2018-07-23T13:31:30.500Z,28.02
2018-07-23T13:32:30.524Z,28.05
2018-07-23T13:34:23.550Z,28.07
2018-07-23T13:35:23.585Z,28.07
2018-07-23T13:37:17.129Z,28.04
2018-07-23T13:38:17.209Z,28.05
2018-07-23T13:40:10.706Z,28.02
2018-07-23T13:41:10.727Z,28.09
2018-07-23T13:43:04.271Z,28.05
2018-07-23T13:44:04.296Z,28.02
2018-07-23T13:45:57.834Z,28.02
2018-07-23T13:46:57.864Z,28.04
2018-07-23T13:48:51.410Z,28.09
2018-07-23T13:49:51.445Z,28.01
2018-07-23T13:51:44.981Z,27.99
2018-07-23T13:52:45.005Z,28.08
2018-07-23T13:54:38.547Z,28.02
2018-07-23T13:55:38.576Z,28.02
2018-07-23T13:57:32.121Z,28.07
2018-07-23T13:58:32.145Z,28.05
2018-07-23T14:00:25.682Z,28.07
2018-07-23T14:01:25.757Z,28.09
2018-07-23T14:03:19.263Z,28.07
2018-07-23T14:04:19.288Z,28.12
2018-07-23T14:06:12.824Z,28.05
2018-07-23T14:07:12.859Z,28.05
2018-07-23T14:09:06.403Z,28.02
2018-07-23T14:10:06.433Z,28.07
2018-07-23T14:11:59.978Z,28.04
2018-07-23T14:12:59.998Z,28.04
2018-07-23T14:14:53.535Z,28.14
2018-07-23T14:15:53.628Z,28.11
2018-07-23T14:17:47.128Z,28.05
2018-07-23T14:18:47.139Z,28.09
2018-07-23T14:20:40.676Z,28.11
2018-07-23T14:21:40.710Z,28.17
2018-07-23T14:23:34.255Z,28.12
2018-07-23T14:24:34.279Z,28.16
2018-07-23T14:26:27.826Z,28.17
2018-07-23T14:27:27.850Z,28.16
2018-07-23T14:29:21.389Z,28.16
2018-07-23T14:30:21.494Z,28.12
2018-07-23T14:32:14.970Z,28.19
2018-07-23T14:33:14.991Z,28.14
2018-07-23T14:35:08.529Z,28.12
2018-07-23T14:36:08.551Z,28.12
2018-07-23T14:38:02.110Z,28.20
2018-07-23T14:39:02.132Z,28.14
2018-07-23T14:40:55.669Z,28.14
2018-07-23T14:41:55.703Z,28.12
2018-07-23T14:43:49.263Z,28.20
2018-07-23T14:44:49.273Z,28.16
2018-07-23T14:46:42.821Z,28.11
2018-07-23T14:47:42.842Z,28.16
2018-07-23T14:49:48.057Z,28.26
2018-07-23T14:50:48.087Z,28.19
2018-07-23T14:52:41.635Z,28.20
2018-07-23T14:53:41.663Z,28.22
2018-07-23T14:55:35.195Z,28.16
2018-07-23T14:56:35.227Z,28.19
2018-07-23T14:58:28.775Z,28.11
2018-07-23T14:59:28.798Z,28.17
2018-07-23T15:01:22.345Z,28.16
2018-07-23T15:02:22.369Z,28.20
2018-07-23T15:04:15.906Z,28.20
2018-07-23T15:05:15.939Z,28.17
2018-07-23T15:07:09.486Z,28.14
2018-07-23T15:08:09.520Z,28.19
2018-07-23T15:10:03.047Z,28.20
2018-07-23T15:11:03.079Z,28.17
2018-07-23T15:12:56.642Z,28.19
2018-07-23T15:13:56.653Z,28.14
2018-07-23T15:15:51.007Z,28.26
2018-07-23T15:16:51.041Z,28.23
2018-07-23T15:18:44.595Z,28.22
2018-07-23T15:19:44.610Z,28.22
2018-07-23T15:21:38.157Z,28.27
2018-07-23T15:22:38.179Z,28.26
2018-07-23T15:24:31.719Z,28.23
2018-07-23T15:25:31.756Z,28.19
2018-07-23T15:27:25.325Z,28.24
2018-07-23T15:28:25.321Z,28.27
2018-07-23T15:30:18.860Z,28.20
2018-07-23T15:31:18.892Z,28.26
2018-07-23T15:33:12.441Z,28.23
2018-07-23T15:34:12.463Z,28.23
2018-07-23T15:36:06.005Z,28.26
2018-07-23T15:37:06.035Z,28.27
2018-07-23T15:38:59.582Z,28.30
2018-07-23T15:39:59.604Z,28.27
2018-07-23T15:41:52.639Z,28.29
2018-07-23T15:42:52.720Z,28.26
2018-07-23T15:44:46.723Z,28.27
2018-07-23T15:45:46.531Z,28.27
2018-07-23T15:47:39.780Z,28.27
2018-07-23T15:48:39.806Z,28.30
2018-07-23T15:50:33.340Z,28.29
2018-07-23T15:51:33.375Z,28.30
2018-07-23T15:53:26.920Z,28.27
2018-07-23T15:54:26.947Z,28.22
2018-07-23T15:56:20.490Z,28.27
2018-07-23T15:57:20.514Z,28.26
2018-07-23T15:59:14.059Z,28.27
2018-07-23T16:00:14.087Z,28.19
2018-07-23T16:02:07.632Z,28.26
2018-07-23T16:03:07.655Z,28.23
2018-07-23T16:05:01.194Z,28.24
2018-07-23T16:06:01.228Z,28.32
2018-07-23T16:07:54.773Z,28.32
2018-07-23T16:08:54.800Z,28.29
2018-07-23T16:10:48.386Z,28.27
2018-07-23T16:11:48.366Z,28.38
2018-07-23T16:13:41.401Z,28.29
2018-07-23T16:14:41.425Z,28.26
2018-07-23T16:16:34.975Z,28.32
2018-07-23T16:17:34.996Z,28.27
2018-07-23T16:19:28.534Z,28.29
2018-07-23T16:20:28.567Z,28.30
2018-07-23T16:22:22.112Z,28.32
2018-07-23T16:23:22.135Z,28.29
2018-07-23T16:25:15.675Z,28.32
2018-07-23T16:26:15.727Z,28.32
2018-07-23T16:28:09.253Z,28.36
2018-07-23T16:29:09.284Z,28.30
2018-07-23T16:31:02.816Z,28.32
2018-07-23T16:32:02.850Z,28.38
2018-07-23T16:33:56.393Z,28.36
2018-07-23T16:34:56.419Z,28.39
2018-07-23T16:36:49.451Z,28.36
2018-07-23T16:37:49.477Z,28.38
2018-07-23T16:39:43.013Z,28.38
2018-07-23T16:40:43.046Z,28.34
2018-07-23T16:42:36.593Z,28.32
2018-07-23T16:43:36.617Z,28.44
2018-07-23T16:45:30.187Z,28.42
2018-07-23T16:46:30.193Z,28.39
2018-07-23T16:48:23.223Z,28.35
2018-07-23T16:49:23.247Z,28.49
2018-07-23T16:51:28.467Z,28.45
2018-07-23T16:52:28.527Z,28.42
2018-07-23T16:54:22.102Z,28.36
2018-07-23T16:55:22.061Z,28.36
2018-07-23T16:57:15.615Z,28.38
2018-07-23T16:58:15.709Z,28.41
2018-07-23T17:00:09.174Z,28.35
2018-07-23T17:01:09.201Z,28.35
2018-07-23T17:03:02.749Z,28.38
2018-07-23T17:04:02.772Z,28.36
2018-07-23T17:05:56.503Z,28.34
2018-07-23T17:06:56.351Z,28.35
2018-07-23T17:08:49.889Z,28.35
2018-07-23T17:09:49.911Z,28.35
2018-07-23T17:11:59.178Z,28.36
2018-07-23T17:12:59.210Z,28.39
2018-07-23T17:14:52.927Z,28.41
2018-07-23T17:15:52.727Z,28.30
2018-07-23T17:17:45.828Z,28.35
2018-07-23T17:18:45.779Z,28.35
2018-07-23T17:20:39.318Z,28.34
2018-07-23T17:21:39.350Z,28.32
2018-07-23T17:23:32.897Z,28.30
2018-07-23T17:24:32.924Z,28.30
2018-07-23T17:26:26.470Z,28.32
2018-07-23T17:27:26.493Z,28.39
2018-07-23T17:29:20.029Z,28.38
2018-07-23T17:30:20.249Z,28.35
2018-07-23T17:32:13.095Z,28.36
2018-07-23T17:33:13.120Z,28.39
2018-07-23T17:35:06.666Z,28.35
2018-07-23T17:36:06.691Z,28.39
2018-07-23T17:38:00.701Z,28.36
2018-07-23T17:39:00.284Z,28.35
2018-07-23T17:40:53.294Z,28.36
2018-07-23T17:41:53.368Z,28.29
2018-07-23T17:43:46.864Z,28.35
2018-07-23T17:44:46.897Z,28.39
2018-07-23T17:46:40.435Z,28.49
2018-07-23T17:47:40.459Z,28.36
2018-07-23T17:49:33.998Z,28.45
2018-07-23T17:50:34.022Z,28.44
2018-07-23T17:52:27.577Z,28.42
2018-07-23T17:53:27.605Z,28.48
2018-07-23T17:55:20.627Z,28.42
2018-07-23T17:56:20.657Z,28.46
2018-07-23T17:58:14.204Z,28.41
2018-07-23T17:59:14.285Z,28.46
2018-07-23T18:01:07.777Z,28.51
2018-07-23T18:02:07.802Z,28.48
2018-07-23T18:04:01.348Z,28.46
2018-07-23T18:05:01.385Z,28.44
2018-07-23T18:06:54.983Z,28.49
2018-07-23T18:07:54.940Z,28.39
2018-07-23T18:09:48.486Z,28.48
2018-07-23T18:10:48.526Z,28.46
2018-07-23T18:12:42.046Z,28.46
2018-07-23T18:13:42.086Z,28.42
2018-07-23T18:15:35.118Z,28.48
2018-07-23T18:16:35.261Z,28.38
2018-07-23T18:18:28.686Z,28.38
2018-07-23T18:19:28.710Z,28.46
2018-07-23T18:21:22.257Z,28.41
2018-07-23T18:22:22.280Z,28.44
2018-07-23T18:24:15.819Z,28.49
2018-07-23T18:25:15.863Z,28.32
2018-07-23T18:27:09.397Z,28.35
2018-07-23T18:28:09.427Z,28.41
2018-07-23T18:30:02.968Z,28.45
2018-07-23T18:31:02.997Z,28.46
2018-07-23T18:32:56.541Z,28.45
2018-07-23T18:33:56.563Z,28.46
2018-07-23T18:35:50.101Z,28.48
2018-07-23T18:36:50.132Z,28.48
2018-07-23T18:38:43.773Z,28.46